Time;durP1;ratioP1;P1;durP2;ratioP2;P2;SDS_P1;SDS_P2;PMS_P1;PMS_P2;Temp;Humidity;BMP_temperature;BMP_pressure;BME280_temperature;BME280_humidity;BME280_pressure;Samples;Min_cycle;Max_cycle;Signal;HPM_P1;HPM_P2
2022/11/24 00:00:39;;;;;;;20.73;3.60;;;;;;;7.78;100.00;100341.00;5206263;28;20018;-74
2022/11/24 00:03:09;;;;;;;13.93;2.47;;;;;;;7.75;100.00;100330.63;5205997;28;20025;-75
2022/11/24 00:05:40;;;;;;;19.85;2.55;;;;;;;7.67;100.00;100330.56;5205453;28;20416;-75
2022/11/24 00:08:11;;;;;;;21.38;3.53;;;;;;;7.65;100.00;100342.41;5205619;28;20120;-75
2022/11/24 00:10:41;;;;;;;26.13;3.65;;;;;;;7.67;100.00;100345.75;5206098;28;20502;-74
2022/11/24 00:13:12;;;;;;;23.92;4.20;;;;;;;7.68;100.00;100348.28;5205966;28;20098;-74
2022/11/24 00:15:42;;;;;;;21.40;3.10;;;;;;;7.63;100.00;100345.25;5205941;28;20075;-74
2022/11/24 00:18:13;;;;;;;18.00;3.00;;;;;;;7.60;100.00;100350.91;5204953;28;20364;-74
2022/11/24 00:20:51;;;;;;;22.40;2.70;;;;;;;7.58;100.00;100352.91;5206032;28;20530;-74
2022/11/24 00:23:21;;;;;;;19.40;4.10;;;;;;;7.58;100.00;100354.72;5205921;28;20009;-74
2022/11/24 00:25:52;;;;;;;17.05;3.50;;;;;;;7.57;100.00;100353.06;5201529;28;20033;-74
2022/11/24 00:28:22;;;;;;;18.52;3.05;;;;;;;7.56;100.00;100349.53;5191395;28;20071;-74
2022/11/24 00:30:52;;;;;;;22.08;3.80;;;;;;;7.53;100.00;100345.38;5205678;28;20060;-74
2022/11/24 00:33:23;;;;;;;20.75;3.50;;;;;;;7.61;100.00;100351.75;5205214;28;20049;-74
2022/11/24 00:35:55;;;;;;;28.63;4.40;;;;;;;7.64;100.00;100354.09;5205620;28;20040;-75
2022/11/24 00:38:26;;;;;;;27.50;3.28;;;;;;;7.75;100.00;100351.16;5204744;28;20082;-75
2022/11/24 00:40:56;;;;;;;16.88;3.53;;;;;;;7.77;100.00;100344.63;5205271;28;20037;-74
2022/11/24 00:43:27;;;;;;;23.38;3.42;;;;;;;7.78;100.00;100354.34;5205271;28;20475;-74
2022/11/24 00:45:57;;;;;;;19.75;3.50;;;;;;;7.79;100.00;100349.84;5205521;28;20030;-74
2022/11/24 00:48:29;;;;;;;19.02;3.42;;;;;;;7.86;100.00;100350.03;5204688;28;20021;-74
2022/11/24 00:51:03;;;;;;;23.00;3.60;;;;;;;7.88;100.00;100348.00;5205238;28;20040;-74
2022/11/24 00:53:33;;;;;;;23.10;4.15;;;;;;;7.89;100.00;100355.06;5204778;28;20025;-74
2022/11/24 00:56:06;;;;;;;32.08;3.40;;;;;;;7.92;100.00;100358.22;5205123;28;20052;-75
2022/11/24 00:58:36;;;;;;;21.33;4.45;;;;;;;7.94;100.00;100356.25;5204578;28;20028;-74
2022/11/24 01:01:15;;;;;;;22.10;4.35;;;;;;;8.00;100.00;100355.59;5204982;28;20029;-74
2022/11/24 01:03:46;;;;;;;21.60;3.72;;;;;;;8.05;100.00;100352.44;5203647;28;20021;-74
2022/11/24 01:06:20;;;;;;;28.10;4.32;;;;;;;8.01;100.00;100365.28;5203867;28;20025;-74
2022/11/24 01:08:51;;;;;;;31.80;3.72;;;;;;;8.13;100.00;100352.44;5204393;28;20025;-74
2022/11/24 01:12:00;;;;;;;27.77;3.67;;;;;;;8.17;100.00;100363.66;5204206;28;20037;-74
2022/11/24 01:14:24;;;;;;;29.20;4.30;;;;;;;8.14;100.00;100364.84;5204147;28;20037;-74
2022/11/24 01:16:55;;;;;;;20.45;3.35;;;;;;;8.19;100.00;100372.34;5204722;28;20063;-74
2022/11/24 01:19:25;;;;;;;38.55;4.63;;;;;;;8.16;100.00;100367.31;5204639;28;20061;-74
2022/11/24 01:21:56;;;;;;;25.80;3.55;;;;;;;8.20;100.00;100372.19;5204418;28;20029;-74
2022/11/24 01:24:26;;;;;;;36.08;4.55;;;;;;;8.20;100.00;100364.16;5204689;28;20116;-74
2022/11/24 01:26:57;;;;;;;27.33;3.80;;;;;;;8.20;100.00;100364.16;5203520;28;20545;-74
2022/11/24 01:29:27;;;;;;;18.90;3.70;;;;;;;8.21;100.00;100376.53;5204791;28;20117;-74
2022/11/24 01:31:58;;;;;;;27.20;3.97;;;;;;;8.21;100.00;100371.19;5201103;28;20112;-74
2022/11/24 01:34:28;;;;;;;31.52;4.38;;;;;;;8.20;100.00;100364.16;5204872;28;20075;-74
2022/11/24 01:36:59;;;;;;;23.48;4.10;;;;;;;8.27;100.00;100369.69;5204188;28;20076;-74
2022/11/24 01:39:29;;;;;;;25.83;3.90;;;;;;;8.30;100.00;100369.38;5203979;28;20039;-75
2022/11/24 01:42:00;;;;;;;21.65;3.88;;;;;;;8.27;100.00;100372.38;5204280;28;20132;-74
2022/11/24 01:44:31;;;;;;;36.97;4.75;;;;;;;8.21;100.00;100363.16;5204280;28;20031;-73
2022/11/24 01:47:11;;;;;;;36.03;5.05;;;;;;;8.17;100.00;100369.00;5203595;28;20037;-74
2022/11/24 01:49:53;;;;;;;20.30;3.95;;;;;;;8.16;100.00;100372.66;5203638;28;20021;-74
2022/11/24 01:52:37;;;;;;;21.63;4.05;;;;;;;8.14;100.00;100378.19;5204262;28;20076;-74
2022/11/24 01:55:14;;;;;;;28.13;4.53;;;;;;;8.21;100.00;100383.72;5191572;28;20381;-76
2022/11/24 01:57:53;;;;;;;44.33;6.05;;;;;;;8.20;100.00;100390.91;5203597;28;20196;-75
2022/11/24 02:00:25;;;;;;;34.53;5.35;;;;;;;8.18;100.00;100392.91;5204110;28;20025;-75
2022/11/24 02:02:57;;;;;;;28.13;4.63;;;;;;;8.16;100.00;100396.72;5204276;28;20032;-75
2022/11/24 02:06:05;;;;;;;29.08;4.78;;;;;;;8.18;100.00;100398.25;5204235;28;20095;-76
2022/11/24 02:08:51;;;;;;;35.75;5.18;;;;;;;8.21;100.00;100405.09;5150929;28;20492;-75
2022/11/24 02:11:25;;;;;;;30.13;4.35;;;;;;;8.28;100.00;100406.97;5201930;28;20040;-75
2022/11/24 02:13:56;;;;;;;31.30;4.70;;;;;;;8.30;100.00;100407.63;5203629;28;20094;-75
2022/11/24 02:16:28;;;;;;;29.02;4.97;;;;;;;8.32;100.00;100410.13;5203822;28;20021;-74
2022/11/24 02:18:59;;;;;;;26.50;5.63;;;;;;;8.38;100.00;100414.84;5202940;28;20179;-75
2022/11/24 02:21:29;;;;;;;31.55;5.18;;;;;;;8.38;100.00;100414.84;5203362;28;20104;-75
2022/11/24 02:24:24;;;;;;;35.38;4.15;;;;;;;8.37;100.00;100423.03;5202479;28;20026;-75
2022/11/24 02:26:54;;;;;;;36.33;5.38;;;;;;;8.39;100.00;100421.91;5203415;28;20033;-75
2022/11/24 02:29:25;;;;;;;22.13;3.78;;;;;;;8.41;100.00;100425.22;5203801;28;20025;-75
2022/11/24 02:32:00;;;;;;;31.35;4.20;;;;;;;8.47;100.00;100429.91;5200179;28;20395;-75
2022/11/24 02:34:31;;;;;;;35.17;4.50;;;;;;;8.50;100.00;100432.28;5203658;28;20489;-75
2022/11/24 02:37:01;;;;;;;35.85;4.95;;;;;;;8.51;100.00;100427.75;5203104;28;20346;-76
2022/11/24 02:39:32;;;;;;;25.15;4.40;;;;;;;8.54;100.00;100435.47;5203159;28;20045;-75
2022/11/24 02:42:08;;;;;;;34.75;4.32;;;;;;;8.52;100.00;100435.63;5203084;28;20238;-76
2022/11/24 02:44:45;;;;;;;29.45;4.03;;;;;;;8.47;100.00;100447.81;5203400;28;20029;-75
2022/11/24 02:47:16;;;;;;;25.67;4.28;;;;;;;8.48;100.00;100450.34;5202943;28;20021;-74
2022/11/24 02:49:46;;;;;;;28.13;4.75;;;;;;;8.51;100.00;100443.81;5203280;28;20033;-75
2022/11/24 02:52:22;;;;;;;34.20;4.50;;;;;;;8.61;100.00;100447.19;5203016;28;20036;-74
2022/11/24 02:54:53;;;;;;;18.70;4.57;;;;;;;8.65;100.00;100453.88;5203343;28;20391;-74
2022/11/24 02:57:23;;;;;;;25.90;4.57;;;;;;;8.68;100.00;100456.22;5202905;28;20025;-74
2022/11/24 02:59:54;;;;;;;38.88;4.68;;;;;;;8.72;100.00;100446.88;5203030;28;20021;-75
2022/11/24 03:02:24;;;;;;;46.78;6.57;;;;;;;8.77;100.00;100441.84;5203440;28;20025;-74
2022/11/24 03:04:55;;;;;;;27.65;4.90;;;;;;;8.78;100.00;100453.38;5202738;28;20391;-74
2022/11/24 03:07:25;;;;;;;29.90;3.75;;;;;;;8.79;100.00;100450.56;5202581;28;20156;-74
2022/11/24 03:09:56;;;;;;;31.83;4.55;;;;;;;8.75;100.00;100446.56;5203514;28;20101;-76
2022/11/24 03:12:26;;;;;;;31.42;5.05;;;;;;;8.71;100.00;100458.56;5203184;28;20028;-74
2022/11/24 03:14:57;;;;;;;22.98;4.10;;;;;;;8.62;100.00;100462.22;5203616;28;20104;-74
2022/11/24 03:17:28;;;;;;;27.95;3.58;;;;;;;8.56;100.00;100462.88;5202827;28;20033;-74
2022/11/24 03:20:00;;;;;;;21.85;3.28;;;;;;;8.52;100.00;100461.53;5203428;28;20022;-75
2022/11/24 03:22:31;;;;;;;20.20;3.22;;;;;;;8.49;100.00;100459.19;5203258;28;20522;-74
2022/11/24 03:25:01;;;;;;;22.48;3.75;;;;;;;8.49;100.00;100468.03;5203350;28;20013;-74
2022/11/24 03:27:32;;;;;;;15.80;3.28;;;;;;;8.44;100.00;100469.53;5195001;28;20060;-74
2022/11/24 03:30:03;;;;;;;20.50;3.42;;;;;;;8.39;100.00;100467.34;5197678;28;20104;-74
2022/11/24 03:32:33;;;;;;;18.67;3.72;;;;;;;8.32;100.00;100469.75;5200546;28;20387;-75
2022/11/24 03:35:04;;;;;;;22.05;3.35;;;;;;;8.29;100.00;100467.44;5208735;28;20047;-75
2022/11/24 03:37:35;;;;;;;22.33;3.60;;;;;;;8.27;100.00;100465.91;5206516;28;20083;-76
2022/11/24 03:40:07;;;;;;;20.05;4.13;;;;;;;8.24;100.00;100468.91;5206350;28;20051;-74
2022/11/24 03:42:38;;;;;;;29.23;3.97;;;;;;;8.21;100.00;100470.06;5207041;28;20101;-74
2022/11/24 03:45:09;;;;;;;28.90;4.07;;;;;;;8.18;100.00;100472.19;5206816;28;20470;-74
2022/11/24 03:47:39;;;;;;;27.80;3.90;;;;;;;8.15;100.00;100473.38;5206226;28;20032;-74
2022/11/24 03:50:10;;;;;;;27.65;3.70;;;;;;;8.16;100.00;100474.22;5206723;28;20100;-74
2022/11/24 03:52:40;;;;;;;34.60;4.45;;;;;;;8.18;100.00;100488.22;5206147;28;20479;-74
2022/11/24 03:55:10;;;;;;;21.70;4.05;;;;;;;8.20;100.00;100496.94;5206750;28;20026;-75
2022/11/24 03:57:41;;;;;;;21.75;4.28;;;;;;;8.21;100.00;100496.78;5206219;28;20037;-75
2022/11/24 04:00:12;;;;;;;34.72;4.13;;;;;;;8.22;100.00;100492.28;5206520;28;20025;-75
2022/11/24 04:02:42;;;;;;;34.42;4.40;;;;;;;8.19;100.00;100495.28;5206477;28;20479;-75
2022/11/24 04:05:13;;;;;;;23.20;5.05;;;;;;;8.13;100.00;100499.41;5206337;28;20102;-75
2022/11/24 04:07:43;;;;;;;28.98;4.47;;;;;;;8.02;100.00;100500.50;5206330;28;20033;-75
2022/11/24 04:10:14;;;;;;;18.52;3.35;;;;;;;8.04;100.00;100501.22;5206474;28;20017;-75
2022/11/24 04:12:44;;;;;;;19.30;2.88;;;;;;;8.05;100.00;100513.56;5206432;28;20029;-75
2022/11/24 04:15:17;;;;;;;16.92;2.67;;;;;;;8.07;100.00;100518.75;5206284;28;20053;-75
2022/11/24 04:17:49;;;;;;;19.60;3.70;;;;;;;8.06;100.00;100517.06;5205464;28;20029;-75
2022/11/24 04:20:20;;;;;;;22.52;3.83;;;;;;;8.02;100.00;100515.69;5206399;28;20057;-75
2022/11/24 04:22:50;;;;;;;20.75;2.28;;;;;;;7.95;100.00;100507.50;5206334;28;20388;-75
2022/11/24 04:25:21;;;;;;;23.65;3.15;;;;;;;7.90;100.00;100512.47;5205927;28;20521;-75
2022/11/24 04:27:53;;;;;;;12.50;2.30;;;;;;;7.87;100.00;100520.78;5195249;28;20361;-75
2022/11/24 04:30:27;;;;;;;9.18;2.08;;;;;;;7.83;100.00;100518.56;5203271;28;20095;-75
2022/11/24 04:32:58;;;;;;;10.35;1.85;;;;;;;7.78;100.00;100519.03;5202726;28;20021;-75
2022/11/24 04:35:28;;;;;;;15.55;1.63;;;;;;;7.74;100.00;100518.53;5206052;28;20036;-74
2022/11/24 04:38:01;;;;;;;11.77;1.85;;;;;;;7.75;100.00;100533.56;5205350;28;20479;-73
2022/11/24 04:40:32;;;;;;;15.45;1.60;;;;;;;7.81;100.00;100531.25;5205500;28;20514;-74
2022/11/24 04:43:02;;;;;;;11.63;1.70;;;;;;;7.80;100.00;100543.78;5205634;28;20664;-75
2022/11/24 04:45:33;;;;;;;6.72;1.65;;;;;;;7.76;100.00;100535.22;5204770;28;20013;-75
2022/11/24 04:48:05;;;;;;;10.13;1.25;;;;;;;7.73;100.00;100538.22;5205258;28;20045;-73
2022/11/24 04:50:36;;;;;;;12.50;1.30;;;;;;;7.74;100.00;100537.22;5205822;28;20052;-74
2022/11/24 04:53:09;;;;;;;7.38;1.77;;;;;;;7.69;100.00;100544.88;5205153;28;20033;-72
2022/11/24 04:55:39;;;;;;;9.93;1.35;;;;;;;7.71;100.00;100550.03;5205762;28;20479;-74
2022/11/24 04:58:10;;;;;;;6.32;1.17;;;;;;;7.64;100.00;100554.34;5205137;28;20029;-74
2022/11/24 05:00:40;;;;;;;8.50;1.15;;;;;;;7.63;100.00;100548.16;5205689;28;20041;-74
2022/11/24 05:03:11;;;;;;;13.88;1.17;;;;;;;7.60;100.00;100553.81;5205479;28;20013;-74
2022/11/24 05:05:41;;;;;;;4.93;1.98;;;;;;;7.58;100.00;100558.47;5205083;28;20120;-74
2022/11/24 05:08:12;;;;;;;10.02;1.60;;;;;;;7.58;100.00;100563.81;5205243;28;20128;-74
2022/11/24 05:10:42;;;;;;;5.80;0.85;;;;;;;7.55;100.00;100573.94;5205494;28;20447;-74
2022/11/24 05:13:13;;;;;;;5.10;1.27;;;;;;;7.50;100.00;100585.91;5205281;28;20455;-74
2022/11/24 05:15:43;;;;;;;5.70;1.30;;;;;;;7.47;100.00;100586.22;5204995;28;20040;-74
2022/11/24 05:18:16;;;;;;;14.65;1.23;;;;;;;7.45;100.00;100593.53;5204236;28;20076;-74
2022/11/24 05:20:48;;;;;;;5.97;0.85;;;;;;;7.41;100.00;100602.84;5205083;28;20100;-74
2022/11/24 05:23:18;;;;;;;7.50;0.90;;;;;;;7.47;100.00;100614.72;5205078;28;20483;-74
2022/11/24 05:25:49;;;;;;;5.13;1.38;;;;;;;7.58;100.00;100616.34;5204709;28;20017;-74
2022/11/24 05:28:20;;;;;;;4.18;0.82;;;;;;;7.62;100.00;100617.72;5190529;28;20033;-74
2022/11/24 05:30:50;;;;;;;3.85;0.77;;;;;;;7.57;100.00;100620.84;5204624;28;20405;-74
2022/11/24 05:33:21;;;;;;;8.75;1.23;;;;;;;7.56;100.00;100626.34;5204570;28;20485;-74
2022/11/24 05:35:52;;;;;;;9.50;1.23;;;;;;;7.51;100.00;100630.28;5204702;28;20156;-74
2022/11/24 05:38:22;;;;;;;9.85;1.20;;;;;;;7.51;100.00;100629.47;5204123;28;20505;-74
2022/11/24 05:40:53;;;;;;;8.93;1.17;;;;;;;7.47;100.00;100630.75;5204633;28;20475;-74
2022/11/24 05:43:23;;;;;;;7.30;1.00;;;;;;;7.42;100.00;100631.19;5204291;28;20494;-75
2022/11/24 05:45:54;;;;;;;4.13;1.02;;;;;;;7.36;100.00;100637.16;5204643;28;20060;-74
2022/11/24 05:48:24;;;;;;;7.72;1.30;;;;;;;7.30;100.00;100632.41;5203771;28;20052;-74
2022/11/24 05:50:55;;;;;;;10.88;2.03;;;;;;;7.31;100.00;100631.41;5204472;28;20025;-74
2022/11/24 05:53:26;;;;;;;6.80;1.23;;;;;;;7.30;100.00;100637.75;5203747;28;20028;-74
2022/11/24 05:55:56;;;;;;;7.50;1.42;;;;;;;7.32;100.00;100640.25;5204135;28;20022;-75
2022/11/24 05:58:27;;;;;;;6.72;1.52;;;;;;;7.25;100.00;100656.03;5203630;28;20032;-74
2022/11/24 06:00:57;;;;;;;5.93;1.13;;;;;;;7.19;100.00;100660.16;5203997;28;20029;-74
2022/11/24 06:03:28;;;;;;;6.63;1.23;;;;;;;7.17;100.00;100653.28;5204372;28;20063;-74
2022/11/24 06:05:58;;;;;;;6.32;1.10;;;;;;;7.12;100.00;100648.38;5203930;28;20522;-74
2022/11/24 06:08:29;;;;;;;7.07;1.40;;;;;;;7.09;100.00;100658.53;5203634;28;20116;-74
2022/11/24 06:11:16;;;;;;;10.70;1.75;;;;;;;7.11;100.00;100681.38;5203872;28;20056;-74
2022/11/24 06:13:49;;;;;;;9.27;1.50;;;;;;;7.13;100.00;100681.22;5204199;28;20025;-74
2022/11/24 06:16:20;;;;;;;12.07;1.83;;;;;;;7.12;100.00;100693.72;5203430;28;20021;-74
2022/11/24 06:18:50;;;;;;;16.98;4.38;;;;;;;7.17;100.00;100691.47;5203217;28;20036;-74
2022/11/24 06:21:21;;;;;;;10.55;3.20;;;;;;;7.19;100.00;100702.00;5203909;28;20025;-74
2022/11/24 06:23:51;;;;;;;7.18;1.60;;;;;;;7.16;100.00;100697.78;5203729;28;20626;-74
2022/11/24 06:26:22;;;;;;;18.52;5.07;;;;;;;7.14;100.00;100704.28;5204192;28;20024;-74
2022/11/24 06:28:52;;;;;;;15.63;2.90;;;;;;;7.13;100.00;100706.09;5189240;28;20067;-74
2022/11/24 06:31:23;;;;;;;20.95;2.85;;;;;;;7.14;100.00;100717.63;5200628;28;20017;-74
2022/11/24 06:33:53;;;;;;;12.30;2.15;;;;;;;7.11;100.00;100712.56;5203341;28;20025;-74
2022/11/24 06:36:24;;;;;;;12.13;1.70;;;;;;;7.11;100.00;100726.75;5203501;28;20075;-74
2022/11/24 06:38:55;;;;;;;12.57;2.40;;;;;;;7.12;100.00;100723.06;5202786;28;20034;-74
2022/11/24 06:41:25;;;;;;;17.50;1.80;;;;;;;7.14;100.00;100734.47;5202777;28;20018;-74
2022/11/24 06:43:55;;;;;;;12.13;2.28;;;;;;;7.14;100.00;100746.97;5203313;28;20231;-74
2022/11/24 06:46:26;;;;;;;27.23;6.15;;;;;;;7.14;100.00;100746.97;5203184;28;20497;-74
2022/11/24 06:48:58;;;;;;;15.73;2.80;;;;;;;7.11;100.00;100755.25;5203088;28;20486;-74
2022/11/24 06:51:28;;;;;;;19.50;3.30;;;;;;;7.07;100.00;100764.50;5203180;28;20117;-75
2022/11/24 06:53:59;;;;;;;15.07;2.15;;;;;;;7.04;100.00;100767.50;5202920;28;20465;-74
2022/11/24 06:56:29;;;;;;;17.42;2.47;;;;;;;6.99;100.00;100763.44;5203000;28;20113;-74
2022/11/24 06:59:00;;;;;;;12.50;2.30;;;;;;;6.97;100.00;100780.56;5202854;28;20063;-75
2022/11/24 07:01:31;;;;;;;11.60;2.42;;;;;;;6.93;100.00;100782.69;5203187;28;20442;-75
2022/11/24 07:04:01;;;;;;;14.60;2.65;;;;;;;6.94;100.00;100792.38;5203032;28;20025;-75
2022/11/24 07:06:32;;;;;;;23.63;6.13;;;;;;;6.93;100.00;100793.34;5202563;28;20026;-74
2022/11/24 07:09:02;;;;;;;14.10;2.53;;;;;;;6.92;100.00;100796.97;5202290;28;20034;-75
2022/11/24 07:11:33;;;;;;;15.50;3.72;;;;;;;6.89;100.00;100791.13;5203062;28;20545;-74
2022/11/24 07:14:05;;;;;;;10.77;2.10;;;;;;;6.86;100.00;100805.56;5202792;28;20048;-74
2022/11/24 07:16:36;;;;;;;25.63;2.53;;;;;;;6.90;100.00;100803.47;5202698;28;20035;-75
2022/11/24 07:19:08;;;;;;;20.85;3.80;;;;;;;6.88;100.00;100816.94;5202195;28;20033;-75
2022/11/24 07:21:39;;;;;;;30.42;3.28;;;;;;;6.85;100.00;100822.56;5203219;28;20017;-75
2022/11/24 07:24:09;;;;;;;18.88;2.92;;;;;;;6.87;100.00;100817.06;5202678;28;20064;-75
2022/11/24 07:26:40;;;;;;;13.77;2.40;;;;;;;6.87;100.00;100817.06;5202128;28;20479;-75
2022/11/24 07:29:10;;;;;;;28.65;3.90;;;;;;;6.89;100.00;100829.28;5221346;28;20044;-75
2022/11/24 07:31:41;;;;;;;13.07;2.33;;;;;;;6.92;100.00;100830.81;5199439;28;20021;-75
2022/11/24 07:34:13;;;;;;;17.50;3.53;;;;;;;6.91;100.00;100840.66;5202958;28;20057;-75
2022/11/24 07:36:44;;;;;;;16.92;2.50;;;;;;;6.92;100.00;100847.66;5202652;28;20029;-75
2022/11/24 07:39:14;;;;;;;18.05;3.00;;;;;;;6.97;100.00;100844.56;5202385;28;20113;-75
2022/11/24 07:41:45;;;;;;;24.20;3.17;;;;;;;7.04;100.00;100860.84;5202310;28;20021;-75
2022/11/24 07:44:15;;;;;;;31.20;5.68;;;;;;;7.03;100.00;100854.69;5202786;28;20053;-75
2022/11/24 07:46:45;;;;;;;16.90;3.22;;;;;;;7.05;100.00;100865.19;5202324;28;20360;-75
2022/11/24 07:49:17;;;;;;;16.45;2.45;;;;;;;7.07;100.00;100865.88;5202467;28;20060;-75
2022/11/24 07:51:47;;;;;;;19.27;2.50;;;;;;;7.08;100.00;100878.22;5202775;28;20406;-75
2022/11/24 07:54:18;;;;;;;14.45;3.00;;;;;;;7.14;100.00;100880.34;5202024;28;20029;-75
2022/11/24 07:56:48;;;;;;;22.88;3.70;;;;;;;7.21;100.00;100884.97;5202595;28;20026;-75
2022/11/24 07:59:19;;;;;;;17.83;2.78;;;;;;;7.25;100.00;100881.03;5202339;28;20111;-75
2022/11/24 08:01:49;;;;;;;15.75;4.28;;;;;;;7.46;100.00;100898.66;5202892;28;20030;-75
2022/11/24 08:04:20;;;;;;;20.30;8.02;;;;;;;7.63;100.00;100899.72;5202848;28;20053;-75
2022/11/24 08:06:50;;;;;;;17.30;3.30;;;;;;;7.70;100.00;100900.84;5202237;28;20025;-75
2022/11/24 08:09:20;;;;;;;12.95;2.50;;;;;;;8.05;100.00;100905.47;5203302;28;20021;-75
2022/11/24 08:11:51;;;;;;;13.63;2.67;;;;;;;8.18;100.00;100915.81;5203498;28;20057;-75
2022/11/24 08:14:21;;;;;;;16.88;2.80;;;;;;;8.15;100.00;100911.59;5202294;28;20049;-75
2022/11/24 08:16:52;;;;;;;20.73;2.17;;;;;;;8.37;100.00;100917.56;5202159;28;20126;-74
2022/11/24 08:19:22;;;;;;;13.45;2.58;;;;;;;8.42;100.00;100918.78;5201836;28;20356;-74
2022/11/24 08:21:53;;;;;;;16.05;2.10;;;;;;;8.71;100.00;100917.75;5205755;28;20022;-74
2022/11/24 08:24:23;;;;;;;16.88;2.38;;;;;;;8.88;100.00;100922.25;5206463;28;20379;-74
2022/11/24 08:26:53;;;;;;;13.60;3.65;;;;;;;9.11;100.00;100929.81;5199623;28;20479;-74
2022/11/24 08:29:28;;;;;;;9.77;2.17;;;;;;;9.36;100.00;100931.69;5195591;28;20719;-74
2022/11/24 08:31:58;;;;;;;6.33;1.83;;;;;;;9.45;100.00;100941.47;5202237;28;20029;-74
2022/11/24 08:34:29;;;;;;;12.90;2.28;;;;;;;9.89;100.00;100946.78;5205898;28;20280;-74
2022/11/24 08:36:59;;;;;;;17.20;2.17;;;;;;;9.99;100.00;100951.97;5205493;28;20490;-74
2022/11/24 08:39:30;;;;;;;8.23;2.40;;;;;;;10.06;100.00;100956.56;5205535;28;20030;-74
2022/11/24 08:42:01;;;;;;;9.27;2.20;;;;;;;10.01;100.00;100964.25;5204247;28;20029;-74
2022/11/24 08:44:31;;;;;;;11.52;2.80;;;;;;;10.09;100.00;100958.94;5205312;28;20056;-74
2022/11/24 08:47:02;;;;;;;11.80;2.60;;;;;;;10.02;100.00;100963.22;5205047;28;20125;-74
2022/11/24 08:49:32;;;;;;;8.50;2.38;;;;;;;10.20;100.00;100971.22;5205331;28;20029;-74
2022/11/24 08:52:02;;;;;;;18.73;4.18;;;;;;;10.76;100.00;100980.47;5205621;28;20021;-74
2022/11/24 08:54:33;;;;;;;23.33;3.60;;;;;;;10.66;100.00;100981.63;5205510;28;20030;-74
2022/11/24 08:57:03;;;;;;;18.88;2.97;;;;;;;11.12;100.00;100982.88;5204751;28;20053;-74
2022/11/24 08:59:34;;;;;;;8.23;2.88;;;;;;;11.03;100.00;100982.03;5205292;28;20540;-74
2022/11/24 09:02:05;;;;;;;12.55;2.63;;;;;;;11.01;100.00;100992.09;5205400;28;20025;-74
2022/11/24 09:04:35;;;;;;;13.10;2.75;;;;;;;10.84;100.00;100987.69;5205120;28;20139;-74
2022/11/24 09:07:05;;;;;;;12.30;3.10;;;;;;;11.07;100.00;100996.81;5204952;28;20025;-74
2022/11/24 09:09:36;;;;;;;11.95;2.13;;;;;;;11.19;100.00;100994.63;5205219;28;20108;-74
2022/11/24 09:12:08;;;;;;;10.93;2.60;;;;;;;11.55;100.00;101000.53;5204986;28;20041;-74
2022/11/24 09:14:39;;;;;;;11.52;2.72;;;;;;;11.64;100.00;100999.50;5205352;28;20383;-74
2022/11/24 09:17:09;;;;;;;12.30;2.75;;;;;;;11.83;100.00;101005.56;5204448;28;20280;-74
2022/11/24 09:19:39;;;;;;;8.52;2.28;;;;;;;11.73;100.00;101008.38;5204608;28;20033;-74
2022/11/24 09:22:10;;;;;;;18.00;2.83;;;;;;;11.81;100.00;101012.94;5201779;28;20053;-74
2022/11/24 09:24:40;;;;;;;13.15;2.58;;;;;;;11.68;100.00;101008.91;5194896;28;20447;-74
2022/11/24 09:27:11;;;;;;;12.60;2.60;;;;;;;11.89;100.00;101012.94;5199569;28;20084;-74
2022/11/24 09:29:41;;;;;;;13.45;3.08;;;;;;;11.81;100.00;101013.78;5228312;28;20056;-74
2022/11/24 09:32:12;;;;;;;15.63;2.45;;;;;;;11.73;100.00;101015.63;5200551;28;20108;-74
2022/11/24 09:34:42;;;;;;;11.25;2.40;;;;;;;11.79;100.00;101015.78;5204972;28;20159;-74
2022/11/24 09:37:13;;;;;;;20.83;3.22;;;;;;;11.60;100.00;101030.44;5204150;28;20021;-74
2022/11/24 09:39:43;;;;;;;13.57;2.33;;;;;;;11.44;100.00;101019.66;5204222;28;20083;-74
2022/11/24 09:42:15;;;;;;;11.80;4.35;;;;;;;11.53;100.00;101029.41;5204578;28;20025;-74
2022/11/24 09:44:48;;;;;;;13.27;2.35;;;;;;;11.17;100.00;101034.25;5204176;28;20483;-74
2022/11/24 09:47:34;;;;;;;22.70;3.10;;;;;;;11.16;100.00;101043.31;5204068;28;20065;-75
2022/11/24 09:50:21;;;;;;;11.05;3.08;;;;;;;11.27;100.00;101050.22;5204307;28;20034;-74
2022/11/24 09:53:28;;;;;;;9.15;1.92;;;;;;;11.06;100.00;101051.50;5203961;28;20033;-74
2022/11/24 09:56:11;;;;;;;16.63;3.15;;;;;;;10.85;100.00;101057.34;5204473;28;20475;-75
2022/11/24 09:58:47;;;;;;;11.60;2.67;;;;;;;10.94;100.00;101058.19;5204088;28;20030;-74
2022/11/24 10:01:21;;;;;;;15.10;2.97;;;;;;;10.92;100.00;101062.03;5203802;28;20056;-74
2022/11/24 10:03:53;;;;;;;19.65;3.08;;;;;;;10.91;100.00;101052.31;5204272;28;20025;-74
2022/11/24 10:06:30;;;;;;;14.27;3.03;;;;;;;10.89;100.00;101055.13;5203929;28;20017;-74
2022/11/24 10:09:23;;;;;;;13.07;2.03;;;;;;;10.82;100.00;101054.13;5203610;28;20387;-74
2022/11/24 10:12:21;;;;;;;14.15;2.03;;;;;;;10.93;100.00;101064.56;5203603;28;20029;-75
2022/11/24 10:15:13;;;;;;;14.23;2.17;;;;;;;10.82;100.00;101060.31;5192939;28;20052;-75
2022/11/24 10:17:46;;;;;;;15.77;2.50;;;;;;;10.88;100.00;101062.34;5203338;28;20033;-74
2022/11/24 10:20:51;;;;;;;14.63;2.67;;;;;;;10.82;100.00;101054.13;5203557;28;20034;-75
2022/11/24 10:23:30;;;;;;;13.40;2.53;;;;;;;10.72;100.00;101056.09;5204042;28;20029;-75
2022/11/24 10:26:06;;;;;;;13.13;2.72;;;;;;;10.82;100.00;101057.66;5202977;28;20060;-75
2022/11/24 10:28:52;;;;;;;22.73;3.60;;;;;;;10.89;100.00;101049.78;5202749;28;20368;-75
2022/11/24 10:31:41;;;;;;;12.13;2.03;;;;;;;10.96;100.00;101050.81;5203579;28;20083;-75
2022/11/24 10:34:26;;;;;;;10.15;2.45;;;;;;;10.93;100.00;101056.50;5192597;28;20092;-75
2022/11/24 10:37:27;;;;;;;17.50;3.33;;;;;;;11.02;100.00;101057.38;5202538;28;20462;-75
2022/11/24 10:40:16;;;;;;;21.60;3.60;;;;;;;11.16;100.00;101064.78;5201356;28;20507;-74
2022/11/24 10:42:47;;;;;;;10.43;2.83;;;;;;;11.09;100.00;101066.44;5203110;28;20116;-76
2022/11/24 10:45:21;;;;;;;15.13;2.22;;;;;;;11.08;100.00;101062.06;5203186;28;20082;-75
2022/11/24 10:47:51;;;;;;;11.93;2.55;;;;;;;11.16;100.00;101059.41;5203072;28;20033;-75
2022/11/24 10:50:30;;;;;;;17.88;3.85;;;;;;;11.23;100.00;101065.81;5203487;28;20032;-75
2022/11/24 10:53:04;;;;;;;18.25;3.22;;;;;;;11.33;100.00;101063.81;5203352;28;20025;-75
2022/11/24 10:55:53;;;;;;;22.05;3.30;;;;;;;11.30;100.00;101072.22;5201775;28;20035;-74
2022/11/24 10:58:36;;;;;;;17.02;3.35;;;;;;;11.37;100.00;101067.00;5202814;28;20176;-75
2022/11/24 11:01:12;;;;;;;15.65;2.80;;;;;;;11.45;100.00;101068.88;5203759;28;20091;-75
2022/11/24 11:03:55;;;;;;;15.00;3.25;;;;;;;11.33;100.00;101063.81;5203395;28;20072;-75
2022/11/24 11:06:30;;;;;;;10.10;2.30;;;;;;;11.33;100.00;101074.53;5190723;28;20406;-75
2022/11/24 11:09:06;;;;;;;12.48;2.55;;;;;;;11.24;100.00;101078.22;5202821;28;20585;-75
2022/11/24 11:11:38;;;;;;;27.55;3.47;;;;;;;11.35;100.00;101069.03;5204169;28;20399;-75
2022/11/24 11:14:11;;;;;;;27.08;3.33;;;;;;;11.39;100.00;101067.66;5202939;28;20033;-75
2022/11/24 11:16:53;;;;;;;21.30;3.08;;;;;;;11.56;100.00;101068.53;5203065;28;20029;-75
2022/11/24 11:19:41;;;;;;;13.98;2.83;;;;;;;11.56;100.00;101069.38;5203148;28;20037;-76
2022/11/24 11:22:11;;;;;;;14.15;2.63;;;;;;;11.67;100.00;101073.56;5203173;28;20056;-75
2022/11/24 11:24:45;;;;;;;10.75;2.45;;;;;;;11.66;100.00;101064.69;5202722;28;20430;-75
2022/11/24 11:27:23;;;;;;;15.35;2.95;;;;;;;11.66;100.00;101069.22;5197310;28;20475;-74
2022/11/24 11:30:08;;;;;;;12.77;3.10;;;;;;;11.67;100.00;101069.03;5196042;28;20037;-74
2022/11/24 11:32:56;;;;;;;16.30;2.47;;;;;;;11.51;100.00;101069.03;5199842;28;20032;-75
2022/11/24 11:35:32;;;;;;;15.38;2.55;;;;;;;11.64;100.00;101071.22;5202998;28;20025;-75
2022/11/24 11:38:05;;;;;;;14.40;2.33;;;;;;;11.73;100.00;101055.94;5202351;28;20075;-75
2022/11/24 11:40:36;;;;;;;15.68;2.90;;;;;;;11.81;100.00;101069.38;5202879;28;20026;-75
2022/11/24 11:43:20;;;;;;;14.30;3.13;;;;;;;11.76;100.00;101067.19;5202917;28;20033;-75